sensor_id;sensor_type;location;lat;lon;timestamp;P1;durP1;ratioP1;P2;durP2;ratioP2
76059;SDS011;64759;52.220;5.170;2023-02-10T00:01:10;38.47;;;18.35;;
76059;SDS011;64759;52.220;5.170;2023-02-10T00:03:37;34.95;;;18.02;;
76059;SDS011;64759;52.220;5.170;2023-02-10T00:06:03;35.65;;;17.45;;
76059;SDS011;64759;52.220;5.170;2023-02-10T00:08:29;32.22;;;17.08;;
76059;SDS011;64759;52.220;5.170;2023-02-10T00:10:58;29.42;;;16.33;;
76059;SDS011;64759;52.220;5.170;2023-02-10T00:13:25;31.45;;;16.48;;
76059;SDS011;64759;52.220;5.170;2023-02-10T00:15:51;40.28;;;16.23;;
76059;SDS011;64759;52.220;5.170;2023-02-10T00:18:16;31.30;;;16.08;;
76059;SDS011;64759;52.220;5.170;2023-02-10T00:20:42;28.63;;;15.15;;
76059;SDS011;64759;52.220;5.170;2023-02-10T00:23:08;35.95;;;15.82;;
76059;SDS011;64759;52.220;5.170;2023-02-10T00:25:36;38.35;;;14.90;;
76059;SDS011;64759;52.220;5.170;2023-02-10T00:28:02;30.33;;;14.65;;
76059;SDS011;64759;52.220;5.170;2023-02-10T00:30:28;27.23;;;13.20;;
76059;SDS011;64759;52.220;5.170;2023-02-10T00:32:54;29.65;;;13.63;;
76059;SDS011;64759;52.220;5.170;2023-02-10T00:35:20;26.58;;;12.68;;
76059;SDS011;64759;52.220;5.170;2023-02-10T00:37:45;31.50;;;13.85;;
76059;SDS011;64759;52.220;5.170;2023-02-10T00:40:12;34.53;;;13.73;;
76059;SDS011;64759;52.220;5.170;2023-02-10T00:42:37;31.67;;;13.43;;
76059;SDS011;64759;52.220;5.170;2023-02-10T00:45:03;28.25;;;14.30;;
76059;SDS011;64759;52.220;5.170;2023-02-10T00:47:29;31.40;;;14.38;;
76059;SDS011;64759;52.220;5.170;2023-02-10T00:49:54;28.27;;;14.90;;
76059;SDS011;64759;52.220;5.170;2023-02-10T00:52:21;31.95;;;15.73;;
76059;SDS011;64759;52.220;5.170;2023-02-10T00:54:46;27.27;;;14.98;;
76059;SDS011;64759;52.220;5.170;2023-02-10T00:57:12;28.48;;;13.43;;
76059;SDS011;64759;52.220;5.170;2023-02-10T00:59:37;27.63;;;13.75;;
76059;SDS011;64759;52.220;5.170;2023-02-10T01:02:03;28.00;;;14.32;;
76059;SDS011;64759;52.220;5.170;2023-02-10T01:04:28;27.52;;;13.07;;
76059;SDS011;64759;52.220;5.170;2023-02-10T01:06:53;29.65;;;13.20;;
76059;SDS011;64759;52.220;5.170;2023-02-10T01:09:19;25.65;;;12.15;;
76059;SDS011;64759;52.220;5.170;2023-02-10T01:11:44;23.85;;;11.38;;
76059;SDS011;64759;52.220;5.170;2023-02-10T01:14:10;29.40;;;11.93;;
76059;SDS011;64759;52.220;5.170;2023-02-10T01:16:35;27.95;;;13.20;;
76059;SDS011;64759;52.220;5.170;2023-02-10T01:19:01;26.73;;;12.23;;
76059;SDS011;64759;52.220;5.170;2023-02-10T01:21:29;24.75;;;12.48;;
76059;SDS011;64759;52.220;5.170;2023-02-10T01:23:56;25.63;;;12.27;;
76059;SDS011;64759;52.220;5.170;2023-02-10T01:26:22;23.80;;;12.30;;
76059;SDS011;64759;52.220;5.170;2023-02-10T01:28:47;28.48;;;12.98;;
76059;SDS011;64759;52.220;5.170;2023-02-10T01:31:14;28.77;;;12.27;;
76059;SDS011;64759;52.220;5.170;2023-02-10T01:33:42;21.88;;;11.50;;
76059;SDS011;64759;52.220;5.170;2023-02-10T01:36:08;27.13;;;12.38;;
76059;SDS011;64759;52.220;5.170;2023-02-10T01:38:35;23.98;;;12.15;;
76059;SDS011;64759;52.220;5.170;2023-02-10T01:41:01;23.75;;;10.88;;
76059;SDS011;64759;52.220;5.170;2023-02-10T01:43:28;23.20;;;10.70;;
76059;SDS011;64759;52.220;5.170;2023-02-10T01:45:53;21.08;;;10.93;;
76059;SDS011;64759;52.220;5.170;2023-02-10T01:48:19;25.40;;;11.50;;
76059;SDS011;64759;52.220;5.170;2023-02-10T01:50:47;24.05;;;11.43;;
76059;SDS011;64759;52.220;5.170;2023-02-10T01:53:23;20.90;;;10.45;;
76059;SDS011;64759;52.220;5.170;2023-02-10T01:55:51;27.92;;;11.35;;
76059;SDS011;64759;52.220;5.170;2023-02-10T01:58:20;21.17;;;11.75;;
76059;SDS011;64759;52.220;5.170;2023-02-10T02:00:48;26.27;;;10.63;;
76059;SDS011;64759;52.220;5.170;2023-02-10T02:03:14;27.13;;;10.95;;
76059;SDS011;64759;52.220;5.170;2023-02-10T02:05:40;26.17;;;9.77;;
76059;SDS011;64759;52.220;5.170;2023-02-10T02:08:08;21.00;;;9.60;;
76059;SDS011;64759;52.220;5.170;2023-02-10T02:33:51;37.75;;;15.40;;
76059;SDS011;64759;52.220;5.170;2023-02-10T02:36:01;29.02;;;8.85;;
76059;SDS011;64759;52.220;5.170;2023-02-10T02:38:39;21.73;;;8.88;;
76059;SDS011;64759;52.220;5.170;2023-02-10T02:41:06;24.45;;;9.10;;
76059;SDS011;64759;52.220;5.170;2023-02-10T02:43:32;15.07;;;7.65;;
76059;SDS011;64759;52.220;5.170;2023-02-10T02:46:01;16.70;;;7.10;;
76059;SDS011;64759;52.220;5.170;2023-02-10T02:51:13;18.98;;;8.52;;
76059;SDS011;64759;52.220;5.170;2023-02-10T02:54:31;21.63;;;8.20;;
76059;SDS011;64759;52.220;5.170;2023-02-10T02:57:08;17.58;;;8.32;;
76059;SDS011;64759;52.220;5.170;2023-02-10T02:59:47;17.25;;;8.15;;
76059;SDS011;64759;52.220;5.170;2023-02-10T03:02:22;19.10;;;8.52;;
76059;SDS011;64759;52.220;5.170;2023-02-10T03:04:48;22.33;;;8.07;;
76059;SDS011;64759;52.220;5.170;2023-02-10T03:07:14;21.55;;;9.38;;
76059;SDS011;64759;52.220;5.170;2023-02-10T03:09:39;20.73;;;9.18;;
76059;SDS011;64759;52.220;5.170;2023-02-10T03:12:05;20.73;;;10.20;;
76059;SDS011;64759;52.220;5.170;2023-02-10T03:14:31;21.98;;;9.65;;
76059;SDS011;64759;52.220;5.170;2023-02-10T03:16:57;16.83;;;8.10;;
76059;SDS011;64759;52.220;5.170;2023-02-10T03:19:22;22.83;;;10.40;;
76059;SDS011;64759;52.220;5.170;2023-02-10T03:21:48;23.77;;;9.18;;
76059;SDS011;64759;52.220;5.170;2023-02-10T03:24:13;19.35;;;8.98;;
76059;SDS011;64759;52.220;5.170;2023-02-10T03:26:39;17.77;;;10.00;;
76059;SDS011;64759;52.220;5.170;2023-02-10T03:29:05;23.05;;;10.73;;
76059;SDS011;64759;52.220;5.170;2023-02-10T03:31:31;26.27;;;9.45;;
76059;SDS011;64759;52.220;5.170;2023-02-10T03:33:57;18.70;;;9.38;;
76059;SDS011;64759;52.220;5.170;2023-02-10T03:36:23;29.92;;;11.07;;
76059;SDS011;64759;52.220;5.170;2023-02-10T03:38:48;29.13;;;10.93;;
76059;SDS011;64759;52.220;5.170;2023-02-10T03:41:14;20.42;;;10.65;;
76059;SDS011;64759;52.220;5.170;2023-02-10T03:43:39;23.25;;;12.70;;
76059;SDS011;64759;52.220;5.170;2023-02-10T03:46:06;22.88;;;10.95;;
76059;SDS011;64759;52.220;5.170;2023-02-10T03:48:33;25.85;;;13.07;;
76059;SDS011;64759;52.220;5.170;2023-02-10T03:50:59;30.13;;;12.40;;
76059;SDS011;64759;52.220;5.170;2023-02-10T03:53:26;28.33;;;13.23;;
76059;SDS011;64759;52.220;5.170;2023-02-10T03:55:52;29.23;;;13.55;;
76059;SDS011;64759;52.220;5.170;2023-02-10T03:58:18;32.35;;;14.10;;
76059;SDS011;64759;52.220;5.170;2023-02-10T04:00:43;31.33;;;15.32;;
76059;SDS011;64759;52.220;5.170;2023-02-10T04:03:09;36.22;;;17.08;;
76059;SDS011;64759;52.220;5.170;2023-02-10T04:05:34;30.05;;;17.15;;
76059;SDS011;64759;52.220;5.170;2023-02-10T04:08:00;39.30;;;17.67;;
76059;SDS011;64759;52.220;5.170;2023-02-10T04:10:25;34.05;;;17.63;;
76059;SDS011;64759;52.220;5.170;2023-02-10T04:12:51;36.72;;;19.40;;
76059;SDS011;64759;52.220;5.170;2023-02-10T04:15:16;38.30;;;18.33;;
76059;SDS011;64759;52.220;5.170;2023-02-10T04:17:42;44.22;;;21.08;;
76059;SDS011;64759;52.220;5.170;2023-02-10T04:20:07;43.25;;;21.10;;
76059;SDS011;64759;52.220;5.170;2023-02-10T04:22:33;36.85;;;19.92;;
76059;SDS011;64759;52.220;5.170;2023-02-10T04:24:58;36.30;;;20.23;;
76059;SDS011;64759;52.220;5.170;2023-02-10T04:27:24;38.70;;;20.27;;
76059;SDS011;64759;52.220;5.170;2023-02-10T04:29:49;40.80;;;19.08;;
76059;SDS011;64759;52.220;5.170;2023-02-10T04:32:14;38.10;;;20.20;;
76059;SDS011;64759;52.220;5.170;2023-02-10T04:34:40;35.72;;;19.00;;
76059;SDS011;64759;52.220;5.170;2023-02-10T04:37:05;43.85;;;21.77;;
76059;SDS011;64759;52.220;5.170;2023-02-10T04:39:31;35.65;;;20.13;;
76059;SDS011;64759;52.220;5.170;2023-02-10T04:41:56;42.67;;;21.25;;
76059;SDS011;64759;52.220;5.170;2023-02-10T04:44:22;44.47;;;22.17;;
76059;SDS011;64759;52.220;5.170;2023-02-10T04:46:47;39.90;;;20.90;;
76059;SDS011;64759;52.220;5.170;2023-02-10T04:49:15;36.83;;;21.08;;
76059;SDS011;64759;52.220;5.170;2023-02-10T04:51:40;42.25;;;22.48;;
76059;SDS011;64759;52.220;5.170;2023-02-10T04:54:06;45.70;;;23.52;;
76059;SDS011;64759;52.220;5.170;2023-02-10T04:56:31;44.65;;;22.48;;
76059;SDS011;64759;52.220;5.170;2023-02-10T04:58:56;42.33;;;22.90;;
76059;SDS011;64759;52.220;5.170;2023-02-10T05:01:22;43.60;;;23.17;;
76059;SDS011;64759;52.220;5.170;2023-02-10T05:03:47;42.92;;;24.58;;
76059;SDS011;64759;52.220;5.170;2023-02-10T05:06:13;41.80;;;22.83;;
76059;SDS011;64759;52.220;5.170;2023-02-10T05:08:39;35.75;;;21.42;;
76059;SDS011;64759;52.220;5.170;2023-02-10T05:11:10;40.50;;;23.20;;
76059;SDS011;64759;52.220;5.170;2023-02-10T05:13:37;46.20;;;24.27;;
76059;SDS011;64759;52.220;5.170;2023-02-10T05:16:03;49.30;;;24.33;;
76059;SDS011;64759;52.220;5.170;2023-02-10T05:18:32;43.63;;;23.40;;
76059;SDS011;64759;52.220;5.170;2023-02-10T05:20:58;45.38;;;23.67;;
76059;SDS011;64759;52.220;5.170;2023-02-10T05:23:24;49.58;;;27.25;;
76059;SDS011;64759;52.220;5.170;2023-02-10T05:25:50;46.50;;;24.77;;
76059;SDS011;64759;52.220;5.170;2023-02-10T05:28:15;48.35;;;25.48;;
76059;SDS011;64759;52.220;5.170;2023-02-10T05:30:41;40.55;;;22.25;;
76059;SDS011;64759;52.220;5.170;2023-02-10T05:33:06;51.72;;;26.27;;
76059;SDS011;64759;52.220;5.170;2023-02-10T05:35:32;53.90;;;26.50;;
76059;SDS011;64759;52.220;5.170;2023-02-10T05:37:57;56.60;;;28.67;;
76059;SDS011;64759;52.220;5.170;2023-02-10T05:40:23;51.30;;;26.40;;
76059;SDS011;64759;52.220;5.170;2023-02-10T05:42:49;50.28;;;25.98;;
76059;SDS011;64759;52.220;5.170;2023-02-10T05:45:15;55.70;;;25.60;;
76059;SDS011;64759;52.220;5.170;2023-02-10T05:47:40;57.72;;;28.45;;
76059;SDS011;64759;52.220;5.170;2023-02-10T05:50:06;50.78;;;27.70;;
76059;SDS011;64759;52.220;5.170;2023-02-10T05:52:31;54.20;;;27.70;;
76059;SDS011;64759;52.220;5.170;2023-02-10T05:54:56;56.13;;;27.23;;
76059;SDS011;64759;52.220;5.170;2023-02-10T05:57:23;50.25;;;28.40;;
76059;SDS011;64759;52.220;5.170;2023-02-10T05:59:48;53.88;;;29.65;;
76059;SDS011;64759;52.220;5.170;2023-02-10T06:02:14;61.90;;;30.27;;
76059;SDS011;64759;52.220;5.170;2023-02-10T06:04:39;58.13;;;30.48;;
76059;SDS011;64759;52.220;5.170;2023-02-10T06:07:04;55.53;;;28.50;;
76059;SDS011;64759;52.220;5.170;2023-02-10T06:09:30;63.90;;;31.20;;
76059;SDS011;64759;52.220;5.170;2023-02-10T06:11:55;53.50;;;28.88;;
76059;SDS011;64759;52.220;5.170;2023-02-10T06:14:20;61.28;;;32.13;;
76059;SDS011;64759;52.220;5.170;2023-02-10T06:16:46;72.93;;;31.13;;
76059;SDS011;64759;52.220;5.170;2023-02-10T06:19:11;65.18;;;32.17;;
76059;SDS011;64759;52.220;5.170;2023-02-10T06:21:37;53.08;;;28.33;;
76059;SDS011;64759;52.220;5.170;2023-02-10T06:24:02;62.20;;;31.63;;
76059;SDS011;64759;52.220;5.170;2023-02-10T06:26:28;71.78;;;32.55;;
76059;SDS011;64759;52.220;5.170;2023-02-10T06:28:54;62.90;;;32.05;;
76059;SDS011;64759;52.220;5.170;2023-02-10T06:31:21;55.92;;;30.52;;
76059;SDS011;64759;52.220;5.170;2023-02-10T06:33:46;55.33;;;29.55;;
76059;SDS011;64759;52.220;5.170;2023-02-10T06:36:12;63.70;;;32.28;;
76059;SDS011;64759;52.220;5.170;2023-02-10T06:38:38;65.57;;;32.92;;
76059;SDS011;64759;52.220;5.170;2023-02-10T06:41:03;63.20;;;31.92;;
76059;SDS011;64759;52.220;5.170;2023-02-10T06:43:29;62.13;;;30.50;;
76059;SDS011;64759;52.220;5.170;2023-02-10T06:45:55;58.00;;;29.55;;
76059;SDS011;64759;52.220;5.170;2023-02-10T06:48:20;56.17;;;29.55;;
76059;SDS011;64759;52.220;5.170;2023-02-10T06:50:46;64.80;;;30.58;;
76059;SDS011;64759;52.220;5.170;2023-02-10T06:53:11;61.75;;;29.92;;
76059;SDS011;64759;52.220;5.170;2023-02-10T06:55:37;66.22;;;31.23;;
76059;SDS011;64759;52.220;5.170;2023-02-10T06:58:02;57.35;;;30.35;;
76059;SDS011;64759;52.220;5.170;2023-02-10T07:00:28;55.60;;;29.70;;
76059;SDS011;64759;52.220;5.170;2023-02-10T07:02:56;50.30;;;27.17;;
76059;SDS011;64759;52.220;5.170;2023-02-10T07:05:22;53.85;;;26.80;;
76059;SDS011;64759;52.220;5.170;2023-02-10T07:07:47;44.88;;;25.98;;
76059;SDS011;64759;52.220;5.170;2023-02-10T07:10:13;53.70;;;27.63;;
76059;SDS011;64759;52.220;5.170;2023-02-10T07:12:38;53.80;;;25.92;;
76059;SDS011;64759;52.220;5.170;2023-02-10T07:15:04;50.65;;;25.33;;
76059;SDS011;64759;52.220;5.170;2023-02-10T07:17:30;53.53;;;26.83;;
76059;SDS011;64759;52.220;5.170;2023-02-10T07:19:56;46.25;;;24.38;;
76059;SDS011;64759;52.220;5.170;2023-02-10T07:22:21;43.72;;;22.40;;
76059;SDS011;64759;52.220;5.170;2023-02-10T07:24:47;42.45;;;22.50;;
76059;SDS011;64759;52.220;5.170;2023-02-10T07:27:13;40.15;;;22.05;;
76059;SDS011;64759;52.220;5.170;2023-02-10T07:29:38;36.83;;;20.98;;
76059;SDS011;64759;52.220;5.170;2023-02-10T07:32:04;45.00;;;23.30;;
76059;SDS011;64759;52.220;5.170;2023-02-10T07:34:29;42.80;;;21.27;;
76059;SDS011;64759;52.220;5.170;2023-02-10T07:36:59;38.60;;;20.70;;
76059;SDS011;64759;52.220;5.170;2023-02-10T07:39:25;37.13;;;19.67;;
76059;SDS011;64759;52.220;5.170;2023-02-10T07:41:51;34.70;;;19.88;;
76059;SDS011;64759;52.220;5.170;2023-02-10T07:44:19;35.13;;;18.92;;
76059;SDS011;64759;52.220;5.170;2023-02-10T07:46:47;31.63;;;16.77;;
76059;SDS011;64759;52.220;5.170;2023-02-10T07:49:13;36.70;;;20.05;;
76059;SDS011;64759;52.220;5.170;2023-02-10T07:51:38;32.63;;;18.33;;
76059;SDS011;64759;52.220;5.170;2023-02-10T07:54:04;34.28;;;19.80;;
76059;SDS011;64759;52.220;5.170;2023-02-10T07:56:30;32.33;;;17.02;;
76059;SDS011;64759;52.220;5.170;2023-02-10T07:58:56;36.15;;;19.40;;
76059;SDS011;64759;52.220;5.170;2023-02-10T08:01:22;31.08;;;17.95;;
76059;SDS011;64759;52.220;5.170;2023-02-10T08:03:47;31.00;;;18.23;;
76059;SDS011;64759;52.220;5.170;2023-02-10T08:06:18;42.17;;;19.23;;
76059;SDS011;64759;52.220;5.170;2023-02-10T08:08:45;32.30;;;20.30;;
76059;SDS011;64759;52.220;5.170;2023-02-10T08:11:10;30.17;;;17.42;;
76059;SDS011;64759;52.220;5.170;2023-02-10T08:13:35;40.67;;;19.55;;
76059;SDS011;64759;52.220;5.170;2023-02-10T08:16:03;32.72;;;17.55;;
76059;SDS011;64759;52.220;5.170;2023-02-10T08:18:30;36.93;;;16.80;;
76059;SDS011;64759;52.220;5.170;2023-02-10T08:20:58;29.27;;;17.25;;
76059;SDS011;64759;52.220;5.170;2023-02-10T08:23:24;33.83;;;17.13;;
76059;SDS011;64759;52.220;5.170;2023-02-10T08:25:49;35.22;;;18.45;;
76059;SDS011;64759;52.220;5.170;2023-02-10T08:28:16;32.60;;;17.38;;
76059;SDS011;64759;52.220;5.170;2023-02-10T08:30:42;28.52;;;16.73;;
76059;SDS011;64759;52.220;5.170;2023-02-10T08:33:07;29.08;;;16.02;;
76059;SDS011;64759;52.220;5.170;2023-02-10T08:35:34;28.92;;;16.52;;
76059;SDS011;64759;52.220;5.170;2023-02-10T08:38:01;28.35;;;17.27;;
76059;SDS011;64759;52.220;5.170;2023-02-10T08:40:27;29.20;;;17.92;;
76059;SDS011;64759;52.220;5.170;2023-02-10T08:42:53;27.10;;;17.73;;
76059;SDS011;64759;52.220;5.170;2023-02-10T08:45:18;29.92;;;17.83;;
76059;SDS011;64759;52.220;5.170;2023-02-10T08:47:44;27.15;;;17.67;;
76059;SDS011;64759;52.220;5.170;2023-02-10T08:50:09;25.67;;;16.25;;
76059;SDS011;64759;52.220;5.170;2023-02-10T08:52:35;30.40;;;17.70;;
76059;SDS011;64759;52.220;5.170;2023-02-10T08:55:00;27.83;;;16.88;;
76059;SDS011;64759;52.220;5.170;2023-02-10T08:57:26;30.17;;;16.27;;
76059;SDS011;64759;52.220;5.170;2023-02-10T08:59:52;26.38;;;16.17;;
76059;SDS011;64759;52.220;5.170;2023-02-10T09:02:18;27.13;;;16.80;;
76059;SDS011;64759;52.220;5.170;2023-02-10T09:04:43;29.50;;;16.90;;
76059;SDS011;64759;52.220;5.170;2023-02-10T09:07:09;24.42;;;15.80;;
76059;SDS011;64759;52.220;5.170;2023-02-10T09:09:39;30.27;;;14.07;;
76059;SDS011;64759;52.220;5.170;2023-02-10T09:12:07;24.17;;;14.65;;
76059;SDS011;64759;52.220;5.170;2023-02-10T09:14:35;24.77;;;14.68;;
76059;SDS011;64759;52.220;5.170;2023-02-10T09:17:01;19.55;;;13.80;;
76059;SDS011;64759;52.220;5.170;2023-02-10T09:19:27;21.58;;;13.25;;
76059;SDS011;64759;52.220;5.170;2023-02-10T09:21:52;21.02;;;13.93;;
76059;SDS011;64759;52.220;5.170;2023-02-10T09:24:20;23.20;;;13.93;;
76059;SDS011;64759;52.220;5.170;2023-02-10T09:26:45;23.65;;;14.55;;
76059;SDS011;64759;52.220;5.170;2023-02-10T09:29:11;22.50;;;14.32;;
76059;SDS011;64759;52.220;5.170;2023-02-10T09:31:37;25.00;;;13.85;;
76059;SDS011;64759;52.220;5.170;2023-02-10T09:34:03;20.73;;;14.48;;
76059;SDS011;64759;52.220;5.170;2023-02-10T09:36:29;20.63;;;12.73;;
76059;SDS011;64759;52.220;5.170;2023-02-10T09:38:55;26.92;;;14.80;;
76059;SDS011;64759;52.220;5.170;2023-02-10T09:57:54;23.95;;;15.02;;
76059;SDS011;64759;52.220;5.170;2023-02-10T10:00:27;24.17;;;13.98;;
76059;SDS011;64759;52.220;5.170;2023-02-10T10:02:55;23.38;;;14.15;;
76059;SDS011;64759;52.220;5.170;2023-02-10T10:07:54;21.50;;;14.25;;
76059;SDS011;64759;52.220;5.170;2023-02-10T10:12:52;24.05;;;14.80;;
76059;SDS011;64759;52.220;5.170;2023-02-10T10:15:18;23.15;;;14.45;;
76059;SDS011;64759;52.220;5.170;2023-02-10T10:17:54;21.80;;;14.57;;
76059;SDS011;64759;52.220;5.170;2023-02-10T10:28:52;26.60;;;15.25;;
76059;SDS011;64759;52.220;5.170;2023-02-10T10:31:40;27.00;;;14.57;;
76059;SDS011;64759;52.220;5.170;2023-02-10T10:34:13;29.70;;;14.65;;
76059;SDS011;64759;52.220;5.170;2023-02-10T10:36:43;29.23;;;15.10;;
76059;SDS011;64759;52.220;5.170;2023-02-10T10:39:29;28.00;;;14.25;;
76059;SDS011;64759;52.220;5.170;2023-02-10T10:42:03;26.38;;;14.20;;
76059;SDS011;64759;52.220;5.170;2023-02-10T10:44:53;24.98;;;12.73;;
76059;SDS011;64759;52.220;5.170;2023-02-10T10:47:43;21.55;;;12.63;;
76059;SDS011;64759;52.220;5.170;2023-02-10T10:50:22;24.70;;;13.70;;
76059;SDS011;64759;52.220;5.170;2023-02-10T10:52:50;21.63;;;13.48;;
76059;SDS011;64759;52.220;5.170;2023-02-10T10:55:37;22.35;;;13.20;;
76059;SDS011;64759;52.220;5.170;2023-02-10T10:58:10;22.23;;;12.05;;
76059;SDS011;64759;52.220;5.170;2023-02-10T11:00:49;25.95;;;12.43;;
76059;SDS011;64759;52.220;5.170;2023-02-10T11:03:16;21.33;;;12.05;;
76059;SDS011;64759;52.220;5.170;2023-02-10T11:05:42;19.75;;;11.90;;
76059;SDS011;64759;52.220;5.170;2023-02-10T11:08:29;23.92;;;11.85;;
76059;SDS011;64759;52.220;5.170;2023-02-10T11:10:57;19.27;;;10.90;;
76059;SDS011;64759;52.220;5.170;2023-02-10T11:13:26;19.08;;;11.52;;
76059;SDS011;64759;52.220;5.170;2023-02-10T11:16:09;23.08;;;11.25;;
76059;SDS011;64759;52.220;5.170;2023-02-10T11:18:49;22.02;;;11.18;;
76059;SDS011;64759;52.220;5.170;2023-02-10T11:21:16;17.88;;;11.30;;
76059;SDS011;64759;52.220;5.170;2023-02-10T11:23:49;18.90;;;10.75;;
76059;SDS011;64759;52.220;5.170;2023-02-10T11:26:18;18.05;;;11.18;;
76059;SDS011;64759;52.220;5.170;2023-02-10T11:28:48;19.63;;;12.27;;
76059;SDS011;64759;52.220;5.170;2023-02-10T11:37:19;19.27;;;12.00;;
76059;SDS011;64759;52.220;5.170;2023-02-10T11:39:54;19.00;;;11.45;;
76059;SDS011;64759;52.220;5.170;2023-02-10T11:42:25;18.63;;;11.57;;
76059;SDS011;64759;52.220;5.170;2023-02-10T11:47:20;22.38;;;11.00;;
76059;SDS011;64759;52.220;5.170;2023-02-10T11:49:46;18.63;;;10.70;;
76059;SDS011;64759;52.220;5.170;2023-02-10T11:52:15;22.63;;;11.45;;
76059;SDS011;64759;52.220;5.170;2023-02-10T11:54:42;23.65;;;12.98;;
76059;SDS011;64759;52.220;5.170;2023-02-10T12:00:35;20.77;;;11.73;;
76059;SDS011;64759;52.220;5.170;2023-02-10T12:03:32;28.67;;;13.25;;
76059;SDS011;64759;52.220;5.170;2023-02-10T12:06:14;19.15;;;10.13;;
76059;SDS011;64759;52.220;5.170;2023-02-10T12:11:36;19.90;;;10.77;;
76059;SDS011;64759;52.220;5.170;2023-02-10T12:17:37;27.33;;;12.18;;
76059;SDS011;64759;52.220;5.170;2023-02-10T12:44:41;25.42;;;12.82;;
76059;SDS011;64759;52.220;5.170;2023-02-10T12:50:43;25.20;;;13.07;;
76059;SDS011;64759;52.220;5.170;2023-02-10T12:52:59;26.10;;;13.75;;
76059;SDS011;64759;52.220;5.170;2023-02-10T12:55:35;27.48;;;14.68;;
76059;SDS011;64759;52.220;5.170;2023-02-10T12:58:44;31.02;;;14.18;;
76059;SDS011;64759;52.220;5.170;2023-02-10T13:01:22;30.23;;;13.15;;
76059;SDS011;64759;52.220;5.170;2023-02-10T13:03:50;27.40;;;14.02;;
76059;SDS011;64759;52.220;5.170;2023-02-10T13:09:17;31.73;;;15.57;;
76059;SDS011;64759;52.220;5.170;2023-02-10T13:14:30;28.95;;;16.60;;
76059;SDS011;64759;52.220;5.170;2023-02-10T13:16:58;29.88;;;15.57;;
76059;SDS011;64759;52.220;5.170;2023-02-10T13:19:37;32.58;;;15.32;;
76059;SDS011;64759;52.220;5.170;2023-02-10T13:25:34;28.48;;;15.02;;
76059;SDS011;64759;52.220;5.170;2023-02-10T13:27:50;36.00;;;17.60;;
76059;SDS011;64759;52.220;5.170;2023-02-10T13:33:29;27.63;;;15.55;;
76059;SDS011;64759;52.220;5.170;2023-02-10T13:36:09;28.27;;;15.35;;
76059;SDS011;64759;52.220;5.170;2023-02-10T13:38:40;29.60;;;16.65;;
76059;SDS011;64759;52.220;5.170;2023-02-10T13:41:16;31.25;;;16.08;;
76059;SDS011;64759;52.220;5.170;2023-02-10T13:46:56;36.67;;;18.65;;
76059;SDS011;64759;52.220;5.170;2023-02-10T13:49:36;33.63;;;17.20;;
76059;SDS011;64759;52.220;5.170;2023-02-10T13:52:14;33.55;;;18.42;;
76059;SDS011;64759;52.220;5.170;2023-02-10T13:54:41;32.35;;;20.08;;
76059;SDS011;64759;52.220;5.170;2023-02-10T14:00:17;34.17;;;17.75;;
76059;SDS011;64759;52.220;5.170;2023-02-10T14:03:00;33.72;;;19.42;;
76059;SDS011;64759;52.220;5.170;2023-02-10T14:05:33;35.58;;;19.85;;
76059;SDS011;64759;52.220;5.170;2023-02-10T14:07:59;34.35;;;19.45;;
76059;SDS011;64759;52.220;5.170;2023-02-10T14:10:36;39.35;;;21.70;;
76059;SDS011;64759;52.220;5.170;2023-02-10T14:13:03;45.33;;;21.80;;
76059;SDS011;64759;52.220;5.170;2023-02-10T14:15:44;41.90;;;21.20;;
76059;SDS011;64759;52.220;5.170;2023-02-10T14:18:21;39.40;;;22.58;;
76059;SDS011;64759;52.220;5.170;2023-02-10T14:23:25;49.22;;;25.10;;
76059;SDS011;64759;52.220;5.170;2023-02-10T14:26:02;49.00;;;26.88;;
76059;SDS011;64759;52.220;5.170;2023-02-10T14:28:31;45.60;;;24.83;;
76059;SDS011;64759;52.220;5.170;2023-02-10T14:31:03;47.42;;;27.35;;
76059;SDS011;64759;52.220;5.170;2023-02-10T14:33:32;57.25;;;29.48;;
76059;SDS011;64759;52.220;5.170;2023-02-10T14:36:00;43.55;;;25.73;;
76059;SDS011;64759;52.220;5.170;2023-02-10T14:38:32;47.78;;;29.40;;
76059;SDS011;64759;52.220;5.170;2023-02-10T14:40:59;49.70;;;27.58;;
76059;SDS011;64759;52.220;5.170;2023-02-10T14:43:28;44.90;;;27.67;;
76059;SDS011;64759;52.220;5.170;2023-02-10T14:45:56;53.72;;;29.90;;
76059;SDS011;64759;52.220;5.170;2023-02-10T14:48:23;46.90;;;27.10;;
76059;SDS011;64759;52.220;5.170;2023-02-10T14:50:59;48.58;;;28.50;;
76059;SDS011;64759;52.220;5.170;2023-02-10T14:53:43;50.03;;;28.70;;
76059;SDS011;64759;52.220;5.170;2023-02-10T14:56:17;53.92;;;29.73;;
76059;SDS011;64759;52.220;5.170;2023-02-10T14:58:44;48.92;;;29.13;;
76059;SDS011;64759;52.220;5.170;2023-02-10T15:01:14;50.22;;;30.08;;
76059;SDS011;64759;52.220;5.170;2023-02-10T15:03:41;50.92;;;29.45;;
76059;SDS011;64759;52.220;5.170;2023-02-10T15:06:07;50.05;;;30.70;;
76059;SDS011;64759;52.220;5.170;2023-02-10T15:08:34;66.68;;;35.70;;
76059;SDS011;64759;52.220;5.170;2023-02-10T15:11:15;52.22;;;32.33;;
76059;SDS011;64759;52.220;5.170;2023-02-10T15:14:09;53.92;;;34.05;;
76059;SDS011;64759;52.220;5.170;2023-02-10T15:16:40;53.83;;;31.60;;
76059;SDS011;64759;52.220;5.170;2023-02-10T15:19:10;59.78;;;34.58;;
76059;SDS011;64759;52.220;5.170;2023-02-10T15:21:43;53.63;;;33.80;;
76059;SDS011;64759;52.220;5.170;2023-02-10T15:24:26;53.63;;;34.20;;
76059;SDS011;64759;52.220;5.170;2023-02-10T15:26:54;55.65;;;34.53;;
76059;SDS011;64759;52.220;5.170;2023-02-10T15:29:21;63.17;;;35.05;;
76059;SDS011;64759;52.220;5.170;2023-02-10T15:31:57;60.13;;;36.45;;
76059;SDS011;64759;52.220;5.170;2023-02-10T15:34:24;61.25;;;36.10;;
76059;SDS011;64759;52.220;5.170;2023-02-10T15:36:57;68.47;;;40.15;;
76059;SDS011;64759;52.220;5.170;2023-02-10T15:41:57;62.97;;;38.72;;
76059;SDS011;64759;52.220;5.170;2023-02-10T15:44:30;65.63;;;37.90;;
76059;SDS011;64759;52.220;5.170;2023-02-10T15:49:41;67.82;;;39.47;;
76059;SDS011;64759;52.220;5.170;2023-02-10T15:52:10;63.17;;;37.05;;
76059;SDS011;64759;52.220;5.170;2023-02-10T15:54:38;65.45;;;36.70;;
76059;SDS011;64759;52.220;5.170;2023-02-10T15:57:05;60.22;;;33.10;;
76059;SDS011;64759;52.220;5.170;2023-02-10T15:59:31;61.58;;;37.13;;
76059;SDS011;64759;52.220;5.170;2023-02-10T16:01:58;63.22;;;36.85;;
76059;SDS011;64759;52.220;5.170;2023-02-10T16:04:33;64.28;;;33.92;;
76059;SDS011;64759;52.220;5.170;2023-02-10T16:07:01;67.20;;;36.03;;
76059;SDS011;64759;52.220;5.170;2023-02-10T16:09:28;61.97;;;35.67;;
76059;SDS011;64759;52.220;5.170;2023-02-10T16:11:55;59.60;;;34.85;;
76059;SDS011;64759;52.220;5.170;2023-02-10T16:14:21;60.78;;;34.97;;
76059;SDS011;64759;52.220;5.170;2023-02-10T16:16:47;61.67;;;36.97;;
76059;SDS011;64759;52.220;5.170;2023-02-10T16:19:17;58.00;;;35.20;;
76059;SDS011;64759;52.220;5.170;2023-02-10T16:21:44;59.10;;;35.92;;
76059;SDS011;64759;52.220;5.170;2023-02-10T16:24:14;58.60;;;35.92;;
76059;SDS011;64759;52.220;5.170;2023-02-10T16:26:41;58.13;;;36.35;;
76059;SDS011;64759;52.220;5.170;2023-02-10T16:29:12;55.60;;;32.83;;
76059;SDS011;64759;52.220;5.170;2023-02-10T16:31:39;61.67;;;37.35;;
76059;SDS011;64759;52.220;5.170;2023-02-10T16:34:05;65.85;;;37.42;;
76059;SDS011;64759;52.220;5.170;2023-02-10T16:36:31;59.47;;;36.38;;
76059;SDS011;64759;52.220;5.170;2023-02-10T16:38:56;65.40;;;38.08;;